Main page
METAR-TAF:

METAR-TAF

Airports :

Netaji Subhas Chandra Bose International Airport

Kolkata, India

latitude: 22-39N, longitude: 088-27E, elevation: 4 m

Current weather observation

The report was made 37 minutes ago, at 06:00 UTC
Wind 5 kt from the South
Temperature 27°C
Humidity 58%
Pressure 1018 hPa
Visibility: 4500 m
haze

METAR: VECC 060600Z 17005KT 4500 HZ NSC 27/18 Q1018 BECMG 5000 HZ

Time: 12:07 (06:37 UTC)

Forecast

The report was made 1 hour and 37 minutes ago, at 05:00 UTC
Forecast valid from 06 at 06 UTC to 06 at 15 UTC
Wind 5 kt from the South/Southeast
Visibility: 5000 m
haze
Becoming
from 06 at 12 UTC to 06 at 14 UTC
Wind kt from the North
Visibility: 3200 m
haze

TAF: VECC 060500Z 0606/0615 16005KT 5000 HZ NSC BECMG 0612/0614 00000KT 3200 HZ

Weather observations and forecasts of more than 4000 airports (METAR and TAF reports).

The available stations are represented by yellow and red dots on the map.

Hover mouse over dot to see the name of the station.

Then click to see weather observations and forecasts.

To change the map : click on the green buttons with a black cross to zoom in, on the green button with a dash to zoom out, or on the green arrows for adjacent maps.


METAR-TAF: